Terminal Aerodrome Forecast
Issued by NWS

Home | Current Version | Previous Version | Text Only | Print | Product List | Glossary On
Versions: 1 2 3 4 5 6 7 8 9 10 11 12 13 14
000
FTUS46 KPDT 301700
TAFALW
TAF
KALW 301740Z 3018/3118 VRB04KT 4SM BR OVC080
     FM302000 18005KT 6SM BR SCT100 OVC120
     FM302200 18005KT P6SM BKN120 OVC130
     FM311400 16005KT P6SM BKN070 OVC090
     FM311700 22007KT P6SM -RA BKN040 OVC050=

USA.gov is the U.S. government's official web portal to all federal, state and local government web resources and services.